sensor_id;sensor_type;location;lat;lon;timestamp;pressure;altitude;pressure_sealevel;temperature;humidity
67373;BME280;54257;54.496;18.412;2023-02-14T00:01:13;101402.89;;;3.26;100.00
67373;BME280;54257;54.496;18.412;2023-02-14T00:03:42;101409.11;;;3.28;100.00
67373;BME280;54257;54.496;18.412;2023-02-14T00:06:12;101410.40;;;3.30;100.00
67373;BME280;54257;54.496;18.412;2023-02-14T00:08:40;101411.63;;;3.33;100.00
67373;BME280;54257;54.496;18.412;2023-02-14T00:11:11;101408.45;;;3.36;100.00
67373;BME280;54257;54.496;18.412;2023-02-14T00:13:40;101411.16;;;3.39;100.00
67373;BME280;54257;54.496;18.412;2023-02-14T00:16:27;101404.08;;;3.43;100.00
67373;BME280;54257;54.496;18.412;2023-02-14T00:18:54;101411.48;;;3.46;100.00
67373;BME280;54257;54.496;18.412;2023-02-14T00:21:31;101411.92;;;3.47;100.00
67373;BME280;54257;54.496;18.412;2023-02-14T00:24:07;101411.64;;;3.50;100.00
67373;BME280;54257;54.496;18.412;2023-02-14T00:26:35;101415.78;;;3.52;100.00
67373;BME280;54257;54.496;18.412;2023-02-14T00:29:10;101412.73;;;3.51;100.00
67373;BME280;54257;54.496;18.412;2023-02-14T00:31:38;101413.67;;;3.50;100.00
67373;BME280;54257;54.496;18.412;2023-02-14T00:34:06;101412.86;;;3.49;100.00
67373;BME280;54257;54.496;18.412;2023-02-14T00:36:34;101415.70;;;3.46;100.00
67373;BME280;54257;54.496;18.412;2023-02-14T00:39:06;101416.29;;;3.42;100.00
67373;BME280;54257;54.496;18.412;2023-02-14T00:41:34;101417.27;;;3.39;100.00
67373;BME280;54257;54.496;18.412;2023-02-14T00:44:01;101406.42;;;3.36;100.00
67373;BME280;54257;54.496;18.412;2023-02-14T00:46:29;101407.55;;;3.35;100.00
67373;BME280;54257;54.496;18.412;2023-02-14T00:48:56;101405.86;;;3.35;100.00
67373;BME280;54257;54.496;18.412;2023-02-14T00:51:23;101418.69;;;3.37;100.00
67373;BME280;54257;54.496;18.412;2023-02-14T00:53:51;101420.98;;;3.39;100.00
67373;BME280;54257;54.496;18.412;2023-02-14T00:56:19;101423.56;;;3.42;100.00
67373;BME280;54257;54.496;18.412;2023-02-14T00:58:46;101429.89;;;3.46;100.00
67373;BME280;54257;54.496;18.412;2023-02-14T01:01:15;101430.19;;;3.48;100.00
67373;BME280;54257;54.496;18.412;2023-02-14T01:03:43;101423.58;;;3.50;100.00
67373;BME280;54257;54.496;18.412;2023-02-14T01:06:10;101424.61;;;3.52;100.00
67373;BME280;54257;54.496;18.412;2023-02-14T01:08:37;101422.70;;;3.54;100.00
67373;BME280;54257;54.496;18.412;2023-02-14T01:11:12;101427.52;;;3.55;100.00
67373;BME280;54257;54.496;18.412;2023-02-14T01:13:41;101431.84;;;3.57;100.00
67373;BME280;54257;54.496;18.412;2023-02-14T01:16:12;101434.27;;;3.60;100.00
67373;BME280;54257;54.496;18.412;2023-02-14T01:18:40;101434.42;;;3.63;100.00
67373;BME280;54257;54.496;18.412;2023-02-14T01:21:32;101429.66;;;3.62;100.00
67373;BME280;54257;54.496;18.412;2023-02-14T01:24:03;101429.89;;;3.60;100.00
67373;BME280;54257;54.496;18.412;2023-02-14T01:26:30;101434.39;;;3.59;100.00
67373;BME280;54257;54.496;18.412;2023-02-14T01:28:57;101433.98;;;3.56;100.00
67373;BME280;54257;54.496;18.412;2023-02-14T01:31:30;101431.80;;;3.54;100.00
67373;BME280;54257;54.496;18.412;2023-02-14T01:33:58;101429.23;;;3.51;100.00
67373;BME280;54257;54.496;18.412;2023-02-14T01:36:28;101431.77;;;3.49;100.00
67373;BME280;54257;54.496;18.412;2023-02-14T01:38:59;101435.63;;;3.48;100.00
67373;BME280;54257;54.496;18.412;2023-02-14T01:41:29;101439.29;;;3.50;100.00
67373;BME280;54257;54.496;18.412;2023-02-14T01:46:31;101436.21;;;3.54;100.00
67373;BME280;54257;54.496;18.412;2023-02-14T01:52:28;101421.64;;;3.56;100.00
67373;BME280;54257;54.496;18.412;2023-02-14T01:55:00;101418.63;;;3.56;100.00
67373;BME280;54257;54.496;18.412;2023-02-14T01:57:34;101425.79;;;3.57;100.00
67373;BME280;54257;54.496;18.412;2023-02-14T02:00:03;101428.83;;;3.57;100.00
67373;BME280;54257;54.496;18.412;2023-02-14T02:02:51;101429.78;;;3.56;100.00
67373;BME280;54257;54.496;18.412;2023-02-14T02:05:19;101427.23;;;3.56;100.00
67373;BME280;54257;54.496;18.412;2023-02-14T02:07:55;101430.20;;;3.55;100.00
67373;BME280;54257;54.496;18.412;2023-02-14T02:10:23;101435.75;;;3.52;100.00
67373;BME280;54257;54.496;18.412;2023-02-14T02:12:52;101437.09;;;3.49;100.00
67373;BME280;54257;54.496;18.412;2023-02-14T02:15:22;101442.02;;;3.45;100.00
67373;BME280;54257;54.496;18.412;2023-02-14T02:39:48;101439.94;;;3.40;100.00
67373;BME280;54257;54.496;18.412;2023-02-14T02:45:27;101445.54;;;3.45;100.00
67373;BME280;54257;54.496;18.412;2023-02-14T02:48:05;101445.36;;;3.47;100.00
67373;BME280;54257;54.496;18.412;2023-02-14T02:50:42;101444.69;;;3.47;100.00
67373;BME280;54257;54.496;18.412;2023-02-14T02:56:15;101439.02;;;3.44;100.00
67373;BME280;54257;54.496;18.412;2023-02-14T02:59:31;101443.90;;;3.41;100.00
67373;BME280;54257;54.496;18.412;2023-02-14T03:02:22;101444.36;;;3.37;100.00
67373;BME280;54257;54.496;18.412;2023-02-14T03:04:54;101445.64;;;3.34;100.00
67373;BME280;54257;54.496;18.412;2023-02-14T03:18:17;101457.08;;;3.24;100.00
67373;BME280;54257;54.496;18.412;2023-02-14T03:21:49;101452.98;;;3.26;100.00
67373;BME280;54257;54.496;18.412;2023-02-14T03:26:50;101467.67;;;3.28;100.00
67373;BME280;54257;54.496;18.412;2023-02-14T03:32:22;101471.69;;;3.34;100.00
67373;BME280;54257;54.496;18.412;2023-02-14T03:43:36;101476.97;;;3.62;100.00
67373;BME280;54257;54.496;18.412;2023-02-14T03:46:16;101470.16;;;3.61;100.00
67373;BME280;54257;54.496;18.412;2023-02-14T03:48:46;101468.15;;;3.61;100.00
67373;BME280;54257;54.496;18.412;2023-02-14T03:51:17;101475.29;;;3.62;100.00
67373;BME280;54257;54.496;18.412;2023-02-14T03:53:49;101481.52;;;3.62;100.00
67373;BME280;54257;54.496;18.412;2023-02-14T03:59:37;101478.64;;;3.57;100.00
67373;BME280;54257;54.496;18.412;2023-02-14T04:02:18;101488.10;;;3.52;100.00
67373;BME280;54257;54.496;18.412;2023-02-14T04:04:49;101490.35;;;3.48;100.00
67373;BME280;54257;54.496;18.412;2023-02-14T04:07:19;101482.56;;;3.45;100.00
67373;BME280;54257;54.496;18.412;2023-02-14T04:09:47;101482.08;;;3.43;100.00
67373;BME280;54257;54.496;18.412;2023-02-14T04:12:17;101488.58;;;3.40;100.00
67373;BME280;54257;54.496;18.412;2023-02-14T04:14:45;101495.88;;;3.37;100.00
67373;BME280;54257;54.496;18.412;2023-02-14T04:17:12;101490.39;;;3.39;100.00
67373;BME280;54257;54.496;18.412;2023-02-14T04:19:58;101483.80;;;3.39;100.00
67373;BME280;54257;54.496;18.412;2023-02-14T04:22:25;101488.80;;;3.40;100.00
67373;BME280;54257;54.496;18.412;2023-02-14T04:24:52;101493.76;;;3.44;100.00
67373;BME280;54257;54.496;18.412;2023-02-14T04:27:20;101494.86;;;3.48;100.00
67373;BME280;54257;54.496;18.412;2023-02-14T04:29:48;101486.42;;;3.48;100.00
67373;BME280;54257;54.496;18.412;2023-02-14T04:32:19;101484.83;;;3.46;100.00
67373;BME280;54257;54.496;18.412;2023-02-14T04:34:48;101488.77;;;3.45;100.00
67373;BME280;54257;54.496;18.412;2023-02-14T04:37:17;101492.73;;;3.44;100.00
67373;BME280;54257;54.496;18.412;2023-02-14T04:39:45;101485.05;;;3.45;100.00
67373;BME280;54257;54.496;18.412;2023-02-14T04:42:12;101473.17;;;3.46;100.00
67373;BME280;54257;54.496;18.412;2023-02-14T04:44:39;101471.30;;;3.46;100.00
67373;BME280;54257;54.496;18.412;2023-02-14T04:47:06;101479.21;;;3.46;100.00
67373;BME280;54257;54.496;18.412;2023-02-14T04:49:35;101482.52;;;3.45;100.00
67373;BME280;54257;54.496;18.412;2023-02-14T04:52:03;101478.50;;;3.43;100.00
67373;BME280;54257;54.496;18.412;2023-02-14T04:54:30;101469.23;;;3.38;100.00
67373;BME280;54257;54.496;18.412;2023-02-14T04:56:57;101477.94;;;3.35;100.00
67373;BME280;54257;54.496;18.412;2023-02-14T04:59:25;101481.61;;;3.32;100.00
67373;BME280;54257;54.496;18.412;2023-02-14T05:01:52;101485.14;;;3.29;100.00
67373;BME280;54257;54.496;18.412;2023-02-14T05:04:20;101487.34;;;3.27;100.00
67373;BME280;54257;54.496;18.412;2023-02-14T05:06:48;101481.10;;;3.22;100.00
67373;BME280;54257;54.496;18.412;2023-02-14T05:09:15;101476.77;;;3.18;100.00
67373;BME280;54257;54.496;18.412;2023-02-14T05:11:42;101479.77;;;3.15;100.00
67373;BME280;54257;54.496;18.412;2023-02-14T05:14:09;101482.46;;;3.13;100.00
67373;BME280;54257;54.496;18.412;2023-02-14T05:16:36;101489.52;;;3.12;100.00
67373;BME280;54257;54.496;18.412;2023-02-14T05:19:04;101482.34;;;3.11;100.00
67373;BME280;54257;54.496;18.412;2023-02-14T05:21:31;101481.59;;;3.10;100.00
67373;BME280;54257;54.496;18.412;2023-02-14T05:23:59;101482.64;;;3.08;100.00
67373;BME280;54257;54.496;18.412;2023-02-14T05:26:29;101481.89;;;3.07;100.00
67373;BME280;54257;54.496;18.412;2023-02-14T05:28:57;101483.41;;;3.07;100.00
67373;BME280;54257;54.496;18.412;2023-02-14T05:31:43;101490.02;;;3.07;100.00
67373;BME280;54257;54.496;18.412;2023-02-14T05:34:11;101490.83;;;3.07;100.00
67373;BME280;54257;54.496;18.412;2023-02-14T05:36:38;101487.54;;;3.06;100.00
67373;BME280;54257;54.496;18.412;2023-02-14T05:39:05;101488.27;;;3.07;100.00
67373;BME280;54257;54.496;18.412;2023-02-14T05:41:32;101489.67;;;3.09;100.00
67373;BME280;54257;54.496;18.412;2023-02-14T05:43:59;101493.13;;;3.10;100.00
67373;BME280;54257;54.496;18.412;2023-02-14T05:46:26;101491.22;;;3.10;100.00
67373;BME280;54257;54.496;18.412;2023-02-14T05:48:53;101489.19;;;3.05;100.00
67373;BME280;54257;54.496;18.412;2023-02-14T05:51:20;101490.31;;;3.00;100.00
67373;BME280;54257;54.496;18.412;2023-02-14T05:53:47;101504.08;;;2.96;100.00
67373;BME280;54257;54.496;18.412;2023-02-14T05:56:14;101514.73;;;2.94;100.00
67373;BME280;54257;54.496;18.412;2023-02-14T05:58:42;101516.39;;;2.92;100.00
67373;BME280;54257;54.496;18.412;2023-02-14T06:01:09;101510.83;;;2.87;100.00
67373;BME280;54257;54.496;18.412;2023-02-14T06:03:37;101506.78;;;2.83;100.00
67373;BME280;54257;54.496;18.412;2023-02-14T06:06:05;101514.19;;;2.80;100.00
67373;BME280;54257;54.496;18.412;2023-02-14T06:08:32;101514.31;;;2.79;100.00
67373;BME280;54257;54.496;18.412;2023-02-14T06:10:59;101511.09;;;2.79;100.00
67373;BME280;54257;54.496;18.412;2023-02-14T06:13:27;101514.09;;;2.78;100.00
67373;BME280;54257;54.496;18.412;2023-02-14T06:15:54;101529.24;;;2.78;100.00
67373;BME280;54257;54.496;18.412;2023-02-14T06:18:21;101532.33;;;2.78;100.00
67373;BME280;54257;54.496;18.412;2023-02-14T06:20:48;101528.61;;;2.78;100.00
67373;BME280;54257;54.496;18.412;2023-02-14T06:23:17;101527.09;;;2.79;100.00
67373;BME280;54257;54.496;18.412;2023-02-14T06:25:44;101532.35;;;2.79;100.00
67373;BME280;54257;54.496;18.412;2023-02-14T06:28:12;101539.19;;;2.80;100.00
67373;BME280;54257;54.496;18.412;2023-02-14T06:30:40;101546.10;;;2.80;100.00
67373;BME280;54257;54.496;18.412;2023-02-14T06:33:07;101548.15;;;2.80;100.00
67373;BME280;54257;54.496;18.412;2023-02-14T06:35:34;101546.11;;;2.80;100.00
67373;BME280;54257;54.496;18.412;2023-02-14T06:38:01;101543.16;;;2.79;100.00
67373;BME280;54257;54.496;18.412;2023-02-14T06:40:28;101541.45;;;2.76;100.00
67373;BME280;54257;54.496;18.412;2023-02-14T06:42:55;101548.19;;;2.74;100.00
67373;BME280;54257;54.496;18.412;2023-02-14T06:45:22;101555.24;;;2.71;100.00
67373;BME280;54257;54.496;18.412;2023-02-14T06:47:49;101568.52;;;2.71;100.00
67373;BME280;54257;54.496;18.412;2023-02-14T06:50:16;101570.98;;;2.72;100.00
67373;BME280;54257;54.496;18.412;2023-02-14T06:52:43;101549.71;;;2.72;100.00
67373;BME280;54257;54.496;18.412;2023-02-14T06:55:11;101550.89;;;2.72;100.00
67373;BME280;54257;54.496;18.412;2023-02-14T06:57:39;101557.09;;;2.71;100.00
67373;BME280;54257;54.496;18.412;2023-02-14T07:00:07;101575.10;;;2.73;100.00
67373;BME280;54257;54.496;18.412;2023-02-14T07:02:35;101575.14;;;2.74;100.00
67373;BME280;54257;54.496;18.412;2023-02-14T07:05:02;101570.68;;;2.75;100.00
67373;BME280;54257;54.496;18.412;2023-02-14T07:07:29;101569.77;;;2.78;100.00
67373;BME280;54257;54.496;18.412;2023-02-14T07:09:56;101574.81;;;2.83;100.00
67373;BME280;54257;54.496;18.412;2023-02-14T07:12:23;101577.96;;;2.87;100.00
67373;BME280;54257;54.496;18.412;2023-02-14T07:14:49;101578.52;;;2.90;100.00
67373;BME280;54257;54.496;18.412;2023-02-14T07:17:16;101582.83;;;2.96;100.00
67373;BME280;54257;54.496;18.412;2023-02-14T07:19:43;101580.73;;;2.99;100.00
67373;BME280;54257;54.496;18.412;2023-02-14T07:22:10;101587.07;;;3.03;100.00
67373;BME280;54257;54.496;18.412;2023-02-14T07:24:37;101588.96;;;3.03;100.00
67373;BME280;54257;54.496;18.412;2023-02-14T07:27:04;101591.84;;;3.06;100.00
67373;BME280;54257;54.496;18.412;2023-02-14T07:29:32;101582.96;;;3.07;100.00
67373;BME280;54257;54.496;18.412;2023-02-14T07:32:00;101577.96;;;3.08;100.00
67373;BME280;54257;54.496;18.412;2023-02-14T07:34:27;101585.59;;;3.10;100.00
67373;BME280;54257;54.496;18.412;2023-02-14T07:36:54;101591.27;;;3.12;100.00
67373;BME280;54257;54.496;18.412;2023-02-14T07:39:21;101597.41;;;3.15;100.00
67373;BME280;54257;54.496;18.412;2023-02-14T07:41:49;101593.31;;;3.17;100.00
67373;BME280;54257;54.496;18.412;2023-02-14T07:44:16;101591.42;;;3.18;100.00
67373;BME280;54257;54.496;18.412;2023-02-14T07:46:43;101592.47;;;3.21;100.00
67373;BME280;54257;54.496;18.412;2023-02-14T07:49:10;101590.74;;;3.23;100.00
67373;BME280;54257;54.496;18.412;2023-02-14T07:51:37;101590.83;;;3.24;100.00
67373;BME280;54257;54.496;18.412;2023-02-14T07:54:05;101592.97;;;3.28;100.00
67373;BME280;54257;54.496;18.412;2023-02-14T07:56:34;101604.63;;;3.33;100.00
67373;BME280;54257;54.496;18.412;2023-02-14T07:59:00;101605.45;;;3.35;100.00
67373;BME280;54257;54.496;18.412;2023-02-14T08:01:28;101601.81;;;3.36;100.00
67373;BME280;54257;54.496;18.412;2023-02-14T08:03:55;101600.47;;;3.38;100.00
67373;BME280;54257;54.496;18.412;2023-02-14T08:06:22;101608.48;;;3.42;100.00
67373;BME280;54257;54.496;18.412;2023-02-14T08:08:51;101614.27;;;3.47;100.00
67373;BME280;54257;54.496;18.412;2023-02-14T08:11:19;101611.36;;;3.51;100.00
67373;BME280;54257;54.496;18.412;2023-02-14T08:14:23;101609.05;;;3.52;100.00
67373;BME280;54257;54.496;18.412;2023-02-14T08:16:49;101621.14;;;3.51;100.00
67373;BME280;54257;54.496;18.412;2023-02-14T08:19:16;101630.06;;;3.51;100.00
67373;BME280;54257;54.496;18.412;2023-02-14T08:21:43;101624.83;;;3.53;100.00
67373;BME280;54257;54.496;18.412;2023-02-14T08:24:10;101620.48;;;3.54;100.00
67373;BME280;54257;54.496;18.412;2023-02-14T08:26:37;101621.99;;;3.56;100.00
67373;BME280;54257;54.496;18.412;2023-02-14T08:29:04;101629.90;;;3.60;100.00
67373;BME280;54257;54.496;18.412;2023-02-14T08:31:31;101633.92;;;3.62;100.00
67373;BME280;54257;54.496;18.412;2023-02-14T08:33:58;101629.11;;;3.66;100.00
67373;BME280;54257;54.496;18.412;2023-02-14T08:36:26;101626.70;;;3.68;100.00
67373;BME280;54257;54.496;18.412;2023-02-14T08:38:53;101626.35;;;3.68;100.00
67373;BME280;54257;54.496;18.412;2023-02-14T08:41:21;101632.30;;;3.68;100.00
67373;BME280;54257;54.496;18.412;2023-02-14T08:43:48;101630.09;;;3.68;100.00
67373;BME280;54257;54.496;18.412;2023-02-14T08:46:15;101625.11;;;3.69;100.00
67373;BME280;54257;54.496;18.412;2023-02-14T08:48:43;101623.11;;;3.72;100.00
67373;BME280;54257;54.496;18.412;2023-02-14T08:51:12;101618.10;;;3.73;100.00
67373;BME280;54257;54.496;18.412;2023-02-14T08:53:42;101625.20;;;3.75;100.00
67373;BME280;54257;54.496;18.412;2023-02-14T08:56:12;101625.30;;;3.79;100.00
67373;BME280;54257;54.496;18.412;2023-02-14T08:58:40;101621.52;;;3.83;100.00
67373;BME280;54257;54.496;18.412;2023-02-14T09:01:12;101619.92;;;3.86;100.00
67373;BME280;54257;54.496;18.412;2023-02-14T09:03:41;101626.11;;;3.95;100.00
67373;BME280;54257;54.496;18.412;2023-02-14T09:06:11;101629.45;;;4.02;100.00
67373;BME280;54257;54.496;18.412;2023-02-14T09:08:39;101625.19;;;4.06;100.00
67373;BME280;54257;54.496;18.412;2023-02-14T09:11:15;101619.92;;;4.08;100.00
67373;BME280;54257;54.496;18.412;2023-02-14T09:13:45;101616.03;;;4.11;100.00
67373;BME280;54257;54.496;18.412;2023-02-14T09:16:14;101622.80;;;4.16;100.00
67373;BME280;54257;54.496;18.412;2023-02-14T09:18:44;101623.48;;;4.20;100.00
67373;BME280;54257;54.496;18.412;2023-02-14T09:21:15;101623.45;;;4.25;100.00
67373;BME280;54257;54.496;18.412;2023-02-14T09:23:42;101620.16;;;4.29;100.00
67373;BME280;54257;54.496;18.412;2023-02-14T09:26:11;101619.86;;;4.32;100.00
67373;BME280;54257;54.496;18.412;2023-02-14T09:28:39;101621.42;;;4.35;100.00
67373;BME280;54257;54.496;18.412;2023-02-14T09:33:39;101623.70;;;4.41;100.00
67373;BME280;54257;54.496;18.412;2023-02-14T09:36:07;101621.48;;;4.48;100.00
67373;BME280;54257;54.496;18.412;2023-02-14T09:38:52;101625.13;;;4.57;100.00
67373;BME280;54257;54.496;18.412;2023-02-14T09:44:07;101630.36;;;4.72;100.00
67373;BME280;54257;54.496;18.412;2023-02-14T09:46:44;101628.49;;;4.79;100.00
67373;BME280;54257;54.496;18.412;2023-02-14T09:49:17;101626.73;;;4.86;100.00
67373;BME280;54257;54.496;18.412;2023-02-14T09:51:49;101627.13;;;4.97;100.00
67373;BME280;54257;54.496;18.412;2023-02-14T09:54:26;101630.05;;;5.03;100.00
67373;BME280;54257;54.496;18.412;2023-02-14T09:57:17;101634.08;;;5.07;100.00
67373;BME280;54257;54.496;18.412;2023-02-14T10:00:10;101631.80;;;5.09;99.98
67373;BME280;54257;54.496;18.412;2023-02-14T10:05:53;101642.37;;;5.10;99.12
67373;BME280;54257;54.496;18.412;2023-02-14T10:09:01;101645.59;;;5.10;99.03
67373;BME280;54257;54.496;18.412;2023-02-14T10:11:33;101647.09;;;5.13;98.45
67373;BME280;54257;54.496;18.412;2023-02-14T10:14:11;101651.45;;;5.14;98.87
67373;BME280;54257;54.496;18.412;2023-02-14T10:16:47;101642.70;;;5.17;98.86
67373;BME280;54257;54.496;18.412;2023-02-14T10:21:54;101643.21;;;5.30;99.21
67373;BME280;54257;54.496;18.412;2023-02-14T10:24:39;101646.74;;;5.35;99.02
67373;BME280;54257;54.496;18.412;2023-02-14T10:27:32;101641.71;;;5.49;99.95
67373;BME280;54257;54.496;18.412;2023-02-14T10:30:11;101642.71;;;5.67;100.00
67373;BME280;54257;54.496;18.412;2023-02-14T10:32:47;101648.16;;;5.97;100.00
67373;BME280;54257;54.496;18.412;2023-02-14T10:35:45;101646.73;;;6.32;100.00
67373;BME280;54257;54.496;18.412;2023-02-14T10:49:24;101634.65;;;7.66;92.06
67373;BME280;54257;54.496;18.412;2023-02-14T10:52:24;101635.30;;;7.56;90.72
67373;BME280;54257;54.496;18.412;2023-02-14T10:54:58;101632.73;;;7.58;93.13
67373;BME280;54257;54.496;18.412;2023-02-14T10:57:55;101632.20;;;7.82;92.67
67373;BME280;54257;54.496;18.412;2023-02-14T11:00:30;101629.78;;;8.04;92.48
67373;BME280;54257;54.496;18.412;2023-02-14T11:03:00;101631.44;;;8.35;93.30
67373;BME280;54257;54.496;18.412;2023-02-14T11:05:43;101623.29;;;8.71;94.25
67373;BME280;54257;54.496;18.412;2023-02-14T11:10:45;101628.44;;;9.33;88.15
67373;BME280;54257;54.496;18.412;2023-02-14T11:16:02;101623.49;;;9.73;84.87
67373;BME280;54257;54.496;18.412;2023-02-14T11:18:31;101619.67;;;9.68;82.56
67373;BME280;54257;54.496;18.412;2023-02-14T11:21:07;101619.66;;;9.81;82.89
67373;BME280;54257;54.496;18.412;2023-02-14T11:23:37;101619.24;;;9.92;82.72
67373;BME280;54257;54.496;18.412;2023-02-14T11:26:31;101615.45;;;10.05;81.52
67373;BME280;54257;54.496;18.412;2023-02-14T11:29:12;101614.65;;;10.25;81.66
67373;BME280;54257;54.496;18.412;2023-02-14T11:31:40;101611.57;;;10.40;81.29
67373;BME280;54257;54.496;18.412;2023-02-14T11:34:23;101614.84;;;10.56;79.14
67373;BME280;54257;54.496;18.412;2023-02-14T11:36:50;101612.30;;;10.57;76.78
67373;BME280;54257;54.496;18.412;2023-02-14T11:39:27;101609.16;;;10.51;76.46
67373;BME280;54257;54.496;18.412;2023-02-14T11:42:00;101611.02;;;10.43;76.47
67373;BME280;54257;54.496;18.412;2023-02-14T11:44:31;101611.02;;;10.43;75.62
67373;BME280;54257;54.496;18.412;2023-02-14T11:47:18;101614.13;;;10.44;76.21
67373;BME280;54257;54.496;18.412;2023-02-14T11:50:05;101617.08;;;10.53;76.58
67373;BME280;54257;54.496;18.412;2023-02-14T11:52:51;101612.10;;;10.52;75.45
67373;BME280;54257;54.496;18.412;2023-02-14T11:55:27;101607.34;;;10.73;76.97
67373;BME280;54257;54.496;18.412;2023-02-14T11:57:56;101602.63;;;10.90;76.11
67373;BME280;54257;54.496;18.412;2023-02-14T12:00:24;101599.08;;;11.08;76.47
67373;BME280;54257;54.496;18.412;2023-02-14T12:02:52;101595.94;;;11.10;73.35
67373;BME280;54257;54.496;18.412;2023-02-14T12:05:26;101595.87;;;11.22;74.51
67373;BME280;54257;54.496;18.412;2023-02-14T12:08:05;101589.35;;;11.34;73.13
67373;BME280;54257;54.496;18.412;2023-02-14T12:10:38;101590.69;;;11.33;71.97
67373;BME280;54257;54.496;18.412;2023-02-14T12:15:50;101581.92;;;11.19;71.82
67373;BME280;54257;54.496;18.412;2023-02-14T12:24:28;101587.20;;;11.40;72.25
67373;BME280;54257;54.496;18.412;2023-02-14T12:27:20;101587.23;;;11.41;71.92
67373;BME280;54257;54.496;18.412;2023-02-14T12:29:50;101585.73;;;11.37;70.48
67373;BME280;54257;54.496;18.412;2023-02-14T12:34:55;101584.93;;;10.80;69.42
67373;BME280;54257;54.496;18.412;2023-02-14T12:40:10;101584.30;;;10.19;69.87
67373;BME280;54257;54.496;18.412;2023-02-14T12:45:29;101587.83;;;9.58;70.65
67373;BME280;54257;54.496;18.412;2023-02-14T12:48:22;101587.56;;;9.38;72.14
67373;BME280;54257;54.496;18.412;2023-02-14T12:57:14;101589.02;;;8.94;73.25
67373;BME280;54257;54.496;18.412;2023-02-14T13:19:32;101581.23;;;7.65;76.96
67373;BME280;54257;54.496;18.412;2023-02-14T13:22:04;101582.95;;;7.53;77.32
67373;BME280;54257;54.496;18.412;2023-02-14T13:24:40;101578.96;;;7.43;77.62
67373;BME280;54257;54.496;18.412;2023-02-14T13:27:22;101580.57;;;7.41;78.16
67373;BME280;54257;54.496;18.412;2023-02-14T13:29:54;101579.13;;;7.33;78.07
67373;BME280;54257;54.496;18.412;2023-02-14T13:32:30;101577.61;;;7.21;78.44
67373;BME280;54257;54.496;18.412;2023-02-14T13:34:59;101578.63;;;7.21;79.07
67373;BME280;54257;54.496;18.412;2023-02-14T13:37:28;101574.50;;;7.17;79.07
67373;BME280;54257;54.496;18.412;2023-02-14T13:39:59;101569.21;;;7.14;79.54
67373;BME280;54257;54.496;18.412;2023-02-14T13:42:59;101569.02;;;7.10;79.57
67373;BME280;54257;54.496;18.412;2023-02-14T13:48:10;101571.91;;;7.05;79.98
67373;BME280;54257;54.496;18.412;2023-02-14T13:56:31;101574.88;;;6.71;79.81
67373;BME280;54257;54.496;18.412;2023-02-14T13:59:04;101577.33;;;6.63;79.88
67373;BME280;54257;54.496;18.412;2023-02-14T14:01:38;101577.80;;;6.57;80.10
67373;BME280;54257;54.496;18.412;2023-02-14T14:12:35;101574.75;;;6.28;80.71
67373;BME280;54257;54.496;18.412;2023-02-14T14:15:11;101573.83;;;6.16;80.95
67373;BME280;54257;54.496;18.412;2023-02-14T14:18:30;101576.95;;;6.03;81.14
67373;BME280;54257;54.496;18.412;2023-02-14T14:20:44;101581.16;;;5.86;81.44
67373;BME280;54257;54.496;18.412;2023-02-14T14:23:34;101582.20;;;5.73;81.72
67373;BME280;54257;54.496;18.412;2023-02-14T14:26:29;101579.50;;;5.62;82.16
67373;BME280;54257;54.496;18.412;2023-02-14T14:29:02;101578.63;;;5.51;82.29
67373;BME280;54257;54.496;18.412;2023-02-14T14:31:29;101578.10;;;5.45;82.74
67373;BME280;54257;54.496;18.412;2023-02-14T14:33:59;101577.71;;;5.42;83.06
67373;BME280;54257;54.496;18.412;2023-02-14T14:36:27;101578.02;;;5.42;83.25
67373;BME280;54257;54.496;18.412;2023-02-14T14:38:54;101576.10;;;5.41;83.52
67373;BME280;54257;54.496;18.412;2023-02-14T14:41:28;101576.34;;;5.39;83.62
67373;BME280;54257;54.496;18.412;2023-02-14T14:43:58;101573.85;;;5.38;83.81
67373;BME280;54257;54.496;18.412;2023-02-14T14:46:25;101574.25;;;5.36;83.87
67373;BME280;54257;54.496;18.412;2023-02-14T14:48:54;101575.16;;;5.34;84.08
67373;BME280;54257;54.496;18.412;2023-02-14T14:54:12;101572.88;;;5.22;84.21
67373;BME280;54257;54.496;18.412;2023-02-14T14:56:50;101571.58;;;5.13;84.29
67373;BME280;54257;54.496;18.412;2023-02-14T14:59:31;101572.61;;;5.02;84.52
67373;BME280;54257;54.496;18.412;2023-02-14T15:02:02;101577.60;;;4.93;84.79
67373;BME280;54257;54.496;18.412;2023-02-14T15:04:31;101579.67;;;4.86;85.26
67373;BME280;54257;54.496;18.412;2023-02-14T15:07:25;101577.53;;;4.82;85.74
67373;BME280;54257;54.496;18.412;2023-02-14T15:09:59;101575.36;;;4.77;85.79
67373;BME280;54257;54.496;18.412;2023-02-14T15:12:27;101575.66;;;4.76;86.07
67373;BME280;54257;54.496;18.412;2023-02-14T15:15:15;101567.75;;;4.77;86.30
67373;BME280;54257;54.496;18.412;2023-02-14T15:17:44;101569.29;;;4.77;86.44
67373;BME280;54257;54.496;18.412;2023-02-14T15:20:21;101568.33;;;4.81;86.54
67373;BME280;54257;54.496;18.412;2023-02-14T15:22:52;101568.16;;;4.83;86.59
67373;BME280;54257;54.496;18.412;2023-02-14T15:25:26;101570.36;;;4.83;86.62
67373;BME280;54257;54.496;18.412;2023-02-14T15:27:54;101569.27;;;4.80;86.61
67373;BME280;54257;54.496;18.412;2023-02-14T15:32:37;101563.08;;;4.71;86.67
67373;BME280;54257;54.496;18.412;2023-02-14T15:35:05;101565.20;;;4.64;86.73
67373;BME280;54257;54.496;18.412;2023-02-14T15:37:36;101563.39;;;4.60;86.97
67373;BME280;54257;54.496;18.412;2023-02-14T15:40:05;101564.71;;;4.55;87.01
67373;BME280;54257;54.496;18.412;2023-02-14T15:42:39;101574.98;;;4.48;87.09